createdAt,value
2023-01-12T00:01:06.680Z,57.10
2023-01-12T00:03:33.500Z,57.97
2023-01-12T00:06:00.279Z,57.81
2023-01-12T00:08:27.241Z,57.66
2023-01-12T00:10:54.112Z,58.18
2023-01-12T00:13:21.140Z,58.03
2023-01-12T00:15:48.028Z,58.67
2023-01-12T00:18:14.928Z,58.55
2023-01-12T00:20:42.052Z,58.88
2023-01-12T00:23:09.047Z,59.61
2023-01-12T00:25:36.178Z,59.73
2023-01-12T00:28:03.050Z,59.08
2023-01-12T00:30:30.014Z,59.68
2023-01-12T00:32:56.888Z,59.31
2023-01-12T00:35:23.722Z,60.00
2023-01-12T00:37:50.583Z,58.96
2023-01-12T00:40:17.497Z,59.19
2023-01-12T00:42:44.408Z,59.71
2023-01-12T00:45:11.209Z,59.69
2023-01-12T00:47:39.237Z,58.99
2023-01-12T00:50:06.060Z,59.35
2023-01-12T00:52:34.150Z,59.63
2023-01-12T00:55:01.055Z,58.38
2023-01-12T00:57:27.902Z,59.05
2023-01-12T00:59:54.723Z,58.39
2023-01-12T01:02:21.720Z,58.01
2023-01-12T01:04:48.549Z,57.90
2023-01-12T01:07:15.490Z,57.77
2023-01-12T01:09:42.364Z,57.71
2023-01-12T01:12:09.272Z,57.69
2023-01-12T01:14:36.151Z,58.43
2023-01-12T01:17:03.027Z,57.72
2023-01-12T01:19:29.914Z,58.07
2023-01-12T01:21:56.856Z,57.21
2023-01-12T01:24:23.860Z,57.36
2023-01-12T01:26:50.734Z,57.99
2023-01-12T01:29:17.934Z,57.67
2023-01-12T01:31:44.812Z,57.24
2023-01-12T01:34:12.154Z,56.58
2023-01-12T01:36:39.011Z,56.78
2023-01-12T01:39:05.839Z,56.24
2023-01-12T01:41:32.670Z,56.72
2023-01-12T01:44:02.201Z,56.41
2023-01-12T01:46:29.224Z,56.16
2023-01-12T01:48:56.398Z,55.98
2023-01-12T01:51:23.751Z,56.20
2023-01-12T01:53:50.641Z,55.87
2023-01-12T01:56:17.460Z,56.11
2023-01-12T01:58:44.322Z,55.91
2023-01-12T02:01:11.235Z,56.51
2023-01-12T02:03:38.203Z,56.49
2023-01-12T02:06:05.117Z,56.67
2023-01-12T02:08:33.024Z,56.60
2023-01-12T02:10:59.999Z,55.80
2023-01-12T02:13:26.935Z,56.46
2023-01-12T02:15:53.823Z,56.33
2023-01-12T02:18:20.749Z,57.11
2023-01-12T02:20:48.037Z,56.73
2023-01-12T02:23:15.105Z,57.20
2023-01-12T02:25:42.416Z,57.17
2023-01-12T02:28:12.729Z,56.95
2023-01-12T02:30:39.653Z,57.17
2023-01-12T02:33:09.316Z,56.91
2023-01-12T02:35:37.988Z,56.51
2023-01-12T02:38:04.913Z,56.51
2023-01-12T02:40:31.847Z,56.15
2023-01-12T02:43:00.943Z,56.43
2023-01-12T02:45:27.975Z,56.23
2023-01-12T02:47:55.371Z,56.36
2023-01-12T02:50:22.289Z,56.93
2023-01-12T02:52:49.132Z,56.34
2023-01-12T02:55:16.025Z,55.61
2023-01-12T02:57:42.961Z,55.11
2023-01-12T03:00:09.929Z,56.16
2023-01-12T03:02:36.804Z,55.33
2023-01-12T03:05:03.762Z,55.12
2023-01-12T03:07:30.656Z,54.59
2023-01-12T03:09:58.708Z,55.59
2023-01-12T03:12:25.567Z,55.65
2023-01-12T03:14:52.420Z,55.37
2023-01-12T03:17:19.451Z,55.91
2023-01-12T03:19:46.548Z,55.68
2023-01-12T03:22:13.388Z,56.95
2023-01-12T03:24:40.510Z,56.18
2023-01-12T03:27:07.516Z,56.08
2023-01-12T03:29:34.304Z,55.42
2023-01-12T03:32:01.253Z,55.60
2023-01-12T03:34:28.380Z,54.83
2023-01-12T03:36:55.214Z,55.08
2023-01-12T03:39:22.408Z,54.88
2023-01-12T03:41:49.511Z,55.39
2023-01-12T03:44:17.040Z,55.15
2023-01-12T03:46:43.932Z,54.57
2023-01-12T03:49:10.831Z,54.98
2023-01-12T03:51:37.679Z,54.47
2023-01-12T03:54:04.617Z,54.63
2023-01-12T03:56:32.005Z,54.64
2023-01-12T03:59:02.163Z,54.44
2023-01-12T04:01:29.203Z,55.43
2023-01-12T04:03:57.571Z,55.63
2023-01-12T04:06:24.715Z,54.93
2023-01-12T04:08:51.567Z,54.59
2023-01-12T04:11:18.362Z,54.39
2023-01-12T04:13:45.450Z,54.65
2023-01-12T04:16:14.852Z,54.90
2023-01-12T04:18:42.287Z,54.83
2023-01-12T04:21:09.136Z,54.58
2023-01-12T04:23:36.274Z,54.93
2023-01-12T04:26:03.309Z,54.58
2023-01-12T04:28:30.267Z,54.46
2023-01-12T04:30:57.292Z,54.50
2023-01-12T04:33:24.129Z,55.03
2023-01-12T04:35:51.342Z,54.50
2023-01-12T04:38:18.197Z,54.41
2023-01-12T04:40:45.544Z,53.84
2023-01-12T04:43:15.465Z,55.18
2023-01-12T04:45:45.415Z,55.17
2023-01-12T04:48:12.459Z,55.99
2023-01-12T04:50:39.291Z,54.78
2023-01-12T04:53:06.189Z,54.06
2023-01-12T04:55:33.379Z,54.05
2023-01-12T04:58:00.356Z,53.88
2023-01-12T05:00:27.162Z,53.77
2023-01-12T05:02:53.959Z,53.28
2023-01-12T05:05:20.896Z,53.40
2023-01-12T05:07:47.690Z,53.40
2023-01-12T05:10:14.594Z,53.50
2023-01-12T05:12:41.677Z,53.08
2023-01-12T05:15:08.515Z,53.63
2023-01-12T05:17:35.521Z,53.64
2023-01-12T05:20:02.683Z,53.59
2023-01-12T05:22:29.486Z,53.04
2023-01-12T05:24:57.434Z,53.05
2023-01-12T05:27:24.263Z,53.66
2023-01-12T05:29:51.246Z,52.96
2023-01-12T05:32:18.179Z,52.47
2023-01-12T05:34:45.127Z,52.31
2023-01-12T05:37:11.979Z,52.24
2023-01-12T05:39:39.031Z,52.84
2023-01-12T05:42:05.872Z,52.20
2023-01-12T05:44:32.732Z,51.59
2023-01-12T05:46:59.999Z,53.27
2023-01-12T05:49:27.808Z,52.11
2023-01-12T05:51:58.605Z,50.80
2023-01-12T05:54:25.851Z,50.66
2023-01-12T05:56:52.739Z,50.18
2023-01-12T05:59:19.653Z,49.07
2023-01-12T06:01:46.823Z,49.03
2023-01-12T06:04:14.096Z,48.20
2023-01-12T06:06:41.529Z,47.80
2023-01-12T06:09:08.766Z,48.13
2023-01-12T06:11:35.638Z,48.80
2023-01-12T06:14:02.746Z,48.37
2023-01-12T06:16:30.253Z,47.86
2023-01-12T06:18:57.642Z,47.87
2023-01-12T06:21:24.485Z,47.67
2023-01-12T06:23:51.875Z,47.81
2023-01-12T06:26:18.881Z,47.78
2023-01-12T06:28:45.824Z,48.30
2023-01-12T06:31:12.712Z,47.93
2023-01-12T06:33:39.724Z,47.90
2023-01-12T06:36:06.564Z,47.53
2023-01-12T06:38:34.365Z,48.22
2023-01-12T06:41:01.686Z,47.45
2023-01-12T06:43:28.792Z,47.97
2023-01-12T06:45:55.694Z,49.12
2023-01-12T06:48:22.581Z,48.15
2023-01-12T06:50:49.414Z,47.89
2023-01-12T06:53:16.338Z,48.04
2023-01-12T06:55:43.172Z,47.63
2023-01-12T06:58:10.345Z,47.46
2023-01-12T07:00:37.447Z,47.61
2023-01-12T07:03:04.411Z,47.56
2023-01-12T07:05:31.334Z,48.64
2023-01-12T07:07:58.263Z,48.76
2023-01-12T07:10:25.232Z,48.62
2023-01-12T07:12:52.130Z,48.89
2023-01-12T07:15:18.921Z,49.11
2023-01-12T07:17:45.841Z,49.08
2023-01-12T07:20:12.854Z,49.62
2023-01-12T07:22:39.670Z,49.60
2023-01-12T07:25:06.526Z,49.79
2023-01-12T07:27:33.383Z,49.59
2023-01-12T07:30:00.262Z,49.60
2023-01-12T07:32:27.333Z,50.17
2023-01-12T07:34:54.473Z,51.46
2023-01-12T07:37:21.311Z,54.34
2023-01-12T07:39:48.624Z,50.84
2023-01-12T07:42:15.566Z,50.84
2023-01-12T07:44:42.317Z,51.67
2023-01-12T07:47:09.180Z,50.18
2023-01-12T07:49:36.061Z,48.17
2023-01-12T07:52:02.830Z,49.00
2023-01-12T07:54:30.198Z,49.52
2023-01-12T07:56:57.076Z,49.49
2023-01-12T07:59:23.891Z,49.21
2023-01-12T08:01:53.930Z,48.31
2023-01-12T08:04:20.998Z,46.55
2023-01-12T08:06:47.864Z,45.87
2023-01-12T08:09:14.630Z,45.91
2023-01-12T08:11:41.426Z,46.53
2023-01-12T08:14:08.278Z,46.79
2023-01-12T08:16:35.136Z,47.18
2023-01-12T08:19:01.995Z,48.36
2023-01-12T08:21:28.883Z,47.60
2023-01-12T08:23:55.688Z,46.68
2023-01-12T08:26:22.578Z,47.45
2023-01-12T08:28:49.645Z,47.69
2023-01-12T08:31:16.913Z,47.90
2023-01-12T08:33:43.794Z,47.70
2023-01-12T08:38:37.651Z,49.09
2023-01-12T08:41:04.571Z,48.78
2023-01-12T08:43:32.028Z,48.59
2023-01-12T08:46:02.981Z,47.87
2023-01-12T08:48:30.228Z,48.26
2023-01-12T08:50:57.056Z,48.32
2023-01-12T08:53:23.908Z,47.77
2023-01-12T08:55:50.885Z,47.45
2023-01-12T08:58:18.029Z,48.42
2023-01-12T09:00:47.337Z,47.69
2023-01-12T09:03:14.508Z,47.86
2023-01-12T09:05:44.340Z,47.06
2023-01-12T09:08:14.051Z,47.10
2023-01-12T09:10:40.961Z,47.50
2023-01-12T09:13:07.854Z,47.26
2023-01-12T09:15:34.853Z,46.51
2023-01-12T09:18:01.712Z,46.27
2023-01-12T09:20:28.568Z,46.80
2023-01-12T09:22:55.465Z,46.40
2023-01-12T09:25:22.293Z,46.08
2023-01-12T09:27:49.167Z,46.87
2023-01-12T09:30:16.005Z,47.04
2023-01-12T09:32:42.830Z,45.64
2023-01-12T09:35:10.084Z,45.29
2023-01-12T09:37:37.040Z,45.54
2023-01-12T09:40:04.527Z,44.17
2023-01-12T09:42:32.301Z,44.18
2023-01-12T09:44:59.380Z,46.74
2023-01-12T09:47:26.422Z,44.38
2023-01-12T09:50:01.357Z,44.24
2023-01-12T09:52:35.016Z,43.47
2023-01-12T09:55:02.552Z,44.14
2023-01-12T09:57:29.586Z,43.85
2023-01-12T09:59:56.611Z,45.28
2023-01-12T10:02:23.725Z,44.06
2023-01-12T10:04:50.878Z,43.25
2023-01-12T10:07:17.911Z,43.13
2023-01-12T10:09:45.259Z,42.86
2023-01-12T10:12:12.092Z,43.00
2023-01-12T10:14:39.002Z,42.25
2023-01-12T10:17:05.898Z,41.61
2023-01-12T10:19:32.842Z,41.26
2023-01-12T10:21:59.702Z,41.68
2023-01-12T10:24:26.654Z,41.55
2023-01-12T10:26:53.403Z,41.42
2023-01-12T10:29:20.352Z,41.05
2023-01-12T10:31:48.663Z,41.54
2023-01-12T10:34:15.831Z,41.62
2023-01-12T10:36:42.881Z,41.35
2023-01-12T10:39:09.763Z,40.62
2023-01-12T10:41:36.711Z,41.21
2023-01-12T10:44:03.602Z,41.06
2023-01-12T10:46:30.743Z,41.16
2023-01-12T10:48:57.738Z,41.32
2023-01-12T10:51:24.555Z,40.64
2023-01-12T10:53:52.514Z,40.96
2023-01-12T10:56:20.348Z,40.34
2023-01-12T10:58:47.478Z,40.10
2023-01-12T11:01:14.516Z,39.77
2023-01-12T11:03:41.680Z,40.47
2023-01-12T11:06:08.689Z,40.27
2023-01-12T11:08:35.579Z,40.22
2023-01-12T11:11:02.679Z,39.79
2023-01-12T11:13:34.267Z,40.28
2023-01-12T11:16:01.215Z,39.61
2023-01-12T11:18:28.039Z,39.27
2023-01-12T11:20:54.945Z,38.81
2023-01-12T11:23:21.916Z,39.10
2023-01-12T11:25:48.862Z,39.51
2023-01-12T11:28:15.927Z,38.83
2023-01-12T11:30:42.990Z,38.60
2023-01-12T11:33:09.855Z,39.00
2023-01-12T11:35:37.073Z,38.29
2023-01-12T11:38:03.980Z,38.12
2023-01-12T11:40:30.841Z,37.87
2023-01-12T11:42:57.873Z,38.56
2023-01-12T11:45:24.715Z,37.04
2023-01-12T11:47:51.532Z,37.11
2023-01-12T11:50:18.782Z,36.91
2023-01-12T11:52:45.616Z,36.73
2023-01-12T11:55:12.749Z,37.00
2023-01-12T11:57:39.744Z,36.47
2023-01-12T12:00:06.521Z,36.40
2023-01-12T12:02:33.499Z,36.05
2023-01-12T12:05:00.385Z,36.85
2023-01-12T12:07:27.237Z,36.08
2023-01-12T12:09:54.090Z,35.66
2023-01-12T12:12:21.009Z,36.13
2023-01-12T12:14:47.830Z,35.54
2023-01-12T12:17:14.705Z,34.89
2023-01-12T12:19:41.503Z,35.50
2023-01-12T12:22:08.313Z,34.88
2023-01-12T12:24:35.103Z,36.26
2023-01-12T12:27:02.025Z,35.63
2023-01-12T12:29:28.870Z,35.02
2023-01-12T12:31:55.947Z,34.97
2023-01-12T12:34:22.744Z,34.63
2023-01-12T12:36:49.755Z,35.30
2023-01-12T12:39:16.697Z,35.68
2023-01-12T12:41:45.060Z,35.18
2023-01-12T12:44:12.012Z,34.96
2023-01-12T12:46:38.880Z,35.40
2023-01-12T12:49:06.269Z,35.60
2023-01-12T12:51:33.077Z,35.08
2023-01-12T12:53:59.867Z,35.31
2023-01-12T12:56:26.619Z,36.25
2023-01-12T12:58:53.475Z,36.01
2023-01-12T13:01:20.594Z,35.92
2023-01-12T13:03:47.543Z,35.90
2023-01-12T13:06:14.351Z,35.75
2023-01-12T13:08:41.227Z,35.93
2023-01-12T13:11:08.508Z,35.90
2023-01-12T13:13:35.612Z,35.75
2023-01-12T13:16:02.523Z,35.67
2023-01-12T13:18:29.393Z,35.68
2023-01-12T13:20:56.347Z,35.68
2023-01-12T13:23:23.205Z,35.36
2023-01-12T13:25:50.049Z,35.01
2023-01-12T13:28:16.843Z,34.63
2023-01-12T13:30:43.820Z,34.59
2023-01-12T13:33:10.720Z,34.73
2023-01-12T13:35:38.105Z,34.44
2023-01-12T13:38:05.102Z,34.55
2023-01-12T13:40:31.966Z,35.27
2023-01-12T13:42:58.856Z,34.87
2023-01-12T13:45:25.732Z,34.20
2023-01-12T13:47:52.585Z,34.10
2023-01-12T13:50:19.624Z,34.49
2023-01-12T13:52:46.666Z,33.73
2023-01-12T13:55:13.537Z,33.41
2023-01-12T13:57:40.323Z,33.28
2023-01-12T14:00:07.539Z,33.14
2023-01-12T14:02:34.389Z,33.54
2023-01-12T14:05:01.300Z,33.44
2023-01-12T14:07:28.819Z,33.34
2023-01-12T14:09:55.572Z,33.22
2023-01-12T14:12:22.391Z,33.21
2023-01-12T14:14:49.207Z,32.66
2023-01-12T14:17:16.017Z,32.61
2023-01-12T14:19:43.225Z,32.54
2023-01-12T14:22:10.556Z,32.08
2023-01-12T14:24:37.394Z,31.86
2023-01-12T14:27:04.248Z,32.12
2023-01-12T14:29:31.030Z,32.39
2023-01-12T14:31:58.032Z,32.23
2023-01-12T14:34:24.901Z,31.84
2023-01-12T14:36:51.789Z,43.99
2023-01-12T14:39:18.809Z,34.89
2023-01-12T14:41:45.660Z,31.50
2023-01-12T14:44:12.663Z,31.20
2023-01-12T14:46:39.645Z,30.96
2023-01-12T14:49:06.949Z,30.94
2023-01-12T14:51:34.075Z,30.85
2023-01-12T14:54:01.315Z,30.80
2023-01-12T14:56:28.150Z,31.33
2023-01-12T14:58:55.045Z,31.15
2023-01-12T15:01:22.188Z,31.07
2023-01-12T15:03:49.146Z,31.42
2023-01-12T15:06:16.092Z,31.35
2023-01-12T15:08:43.446Z,31.78
2023-01-12T15:11:10.325Z,31.42
2023-01-12T15:13:37.193Z,31.17
2023-01-12T15:16:04.210Z,31.55
2023-01-12T15:18:31.019Z,31.37
2023-01-12T15:20:57.979Z,31.42
2023-01-12T15:23:25.107Z,31.45
2023-01-12T15:25:51.929Z,31.50
2023-01-12T15:28:18.741Z,33.38
2023-01-12T15:30:45.571Z,40.69
2023-01-12T15:33:12.342Z,39.09
2023-01-12T15:35:39.649Z,36.23
2023-01-12T15:38:06.809Z,34.20
2023-01-12T15:40:33.770Z,32.10
2023-01-12T15:43:01.567Z,33.38
2023-01-12T15:45:28.444Z,32.34
2023-01-12T15:47:55.412Z,32.71
2023-01-12T15:50:22.218Z,33.14
2023-01-12T15:52:48.998Z,33.09
2023-01-12T15:55:16.392Z,32.72
2023-01-12T15:57:43.647Z,33.39
2023-01-12T16:00:10.521Z,32.41
2023-01-12T16:02:38.152Z,32.77
2023-01-12T16:05:05.107Z,33.10
2023-01-12T16:07:32.266Z,33.52
2023-01-12T16:09:59.107Z,32.96
2023-01-12T16:12:25.958Z,32.11
2023-01-12T16:14:52.793Z,31.43
2023-01-12T16:17:19.932Z,31.32
2023-01-12T16:19:46.717Z,30.95
2023-01-12T16:22:13.519Z,30.49
2023-01-12T16:24:40.350Z,32.10
2023-01-12T16:27:07.286Z,31.74
2023-01-12T16:29:34.110Z,31.52
2023-01-12T16:32:01.036Z,31.67
2023-01-12T16:34:27.897Z,31.87
2023-01-12T16:36:54.691Z,32.74
2023-01-12T16:39:21.562Z,32.77
2023-01-12T16:41:48.565Z,33.40
2023-01-12T16:44:15.548Z,33.59
2023-01-12T16:46:42.680Z,32.53
2023-01-12T16:49:09.518Z,32.53
2023-01-12T16:51:36.611Z,31.15
2023-01-12T16:54:03.607Z,31.58
2023-01-12T16:56:30.739Z,31.87
2023-01-12T16:58:57.975Z,31.23
2023-01-12T17:01:25.491Z,32.12
2023-01-12T17:03:52.836Z,31.60
2023-01-12T17:06:19.805Z,31.80
2023-01-12T17:08:47.228Z,32.16
2023-01-12T17:11:15.750Z,32.42
2023-01-12T17:13:44.597Z,32.54
2023-01-12T17:16:12.623Z,33.08
2023-01-12T17:18:39.695Z,33.51
2023-01-12T17:21:06.739Z,33.79
2023-01-12T17:23:33.658Z,34.34
2023-01-12T17:26:00.466Z,34.78
2023-01-12T17:28:27.286Z,35.13
2023-01-12T17:30:54.316Z,35.90
2023-01-12T17:33:21.549Z,35.77
2023-01-12T17:35:50.057Z,36.13
2023-01-12T17:38:17.085Z,36.27
2023-01-12T17:40:43.931Z,36.19
2023-01-12T17:43:11.658Z,36.45
2023-01-12T17:45:39.286Z,36.63
2023-01-12T17:48:06.316Z,36.69
2023-01-12T17:50:33.536Z,36.44
2023-01-12T17:53:00.484Z,36.91
2023-01-12T17:55:27.833Z,36.12
2023-01-12T17:57:54.760Z,35.63
2023-01-12T18:00:21.620Z,35.06
2023-01-12T18:02:48.782Z,35.36
2023-01-12T18:05:16.098Z,34.56
2023-01-12T18:07:43.055Z,35.50
2023-01-12T18:10:10.109Z,35.75
2023-01-12T18:12:37.160Z,35.59
2023-01-12T18:15:04.814Z,35.52
2023-01-12T18:17:31.893Z,41.76
2023-01-12T18:20:01.184Z,39.46
2023-01-12T18:22:28.809Z,36.20
2023-01-12T18:24:56.743Z,35.02
2023-01-12T18:27:24.357Z,34.44
2023-01-12T18:29:51.420Z,32.87
2023-01-12T18:32:18.362Z,32.71
2023-01-12T18:34:47.633Z,31.97
2023-01-12T18:37:14.788Z,31.61
2023-01-12T18:39:43.601Z,32.09
2023-01-12T18:42:10.489Z,32.28
2023-01-12T18:44:37.487Z,31.82
2023-01-12T18:47:04.565Z,31.82
2023-01-12T18:49:31.609Z,32.60
2023-01-12T18:51:58.507Z,32.20
2023-01-12T18:54:25.382Z,32.07
2023-01-12T18:56:52.496Z,32.29
2023-01-12T18:59:19.738Z,32.32
2023-01-12T19:01:47.567Z,32.17
2023-01-12T19:04:14.560Z,32.52
2023-01-12T19:06:42.636Z,32.50
2023-01-12T19:09:09.996Z,32.79
2023-01-12T19:11:36.859Z,32.71
2023-01-12T19:14:04.718Z,32.69
2023-01-12T19:16:32.871Z,32.51
2023-01-12T19:19:00.602Z,40.60
2023-01-12T19:21:28.226Z,36.30
2023-01-12T19:23:55.554Z,41.32
2023-01-12T19:26:24.790Z,41.08
2023-01-12T19:28:53.960Z,40.05
2023-01-12T19:31:21.413Z,38.43
2023-01-12T19:33:48.445Z,37.48
2023-01-12T19:36:15.664Z,33.98
2023-01-12T19:38:43.006Z,33.08
2023-01-12T19:41:10.298Z,33.15
2023-01-12T19:43:38.164Z,33.17
2023-01-12T19:46:05.386Z,32.95
2023-01-12T19:48:33.067Z,32.96
2023-01-12T19:51:00.726Z,33.37
2023-01-12T19:53:28.249Z,33.08
2023-01-12T19:55:55.294Z,34.13
2023-01-12T19:58:22.621Z,40.05
2023-01-12T20:00:50.953Z,39.08
2023-01-12T20:03:19.005Z,37.45
2023-01-12T20:05:49.210Z,36.56
2023-01-12T20:08:16.586Z,37.28
2023-01-12T20:10:46.001Z,37.38
2023-01-12T20:13:13.177Z,36.58
2023-01-12T20:15:40.474Z,36.81
2023-01-12T20:18:08.758Z,35.46
2023-01-12T20:20:36.743Z,33.46
2023-01-12T20:23:03.781Z,32.98
2023-01-12T20:25:30.698Z,33.68
2023-01-12T20:27:57.812Z,33.59
2023-01-12T20:30:37.460Z,33.15
2023-01-12T20:33:05.490Z,33.53
2023-01-12T20:35:32.931Z,33.99
2023-01-12T20:38:00.351Z,34.19
2023-01-12T20:40:27.653Z,34.21
2023-01-12T20:42:55.132Z,33.91
2023-01-12T20:45:22.964Z,34.22
2023-01-12T20:47:50.769Z,34.62
2023-01-12T20:50:18.539Z,34.78
2023-01-12T20:52:45.943Z,34.73
2023-01-12T20:55:13.673Z,35.35
2023-01-12T20:57:41.479Z,35.37
2023-01-12T21:00:08.686Z,35.60
2023-01-12T21:02:36.136Z,36.04
2023-01-12T21:05:05.729Z,36.18
2023-01-12T21:07:32.924Z,36.46
2023-01-12T21:10:00.825Z,36.61
2023-01-12T21:12:28.710Z,36.81
2023-01-12T21:14:55.819Z,37.01
2023-01-12T21:17:22.882Z,36.89
2023-01-12T21:19:49.827Z,37.20
2023-01-12T21:22:16.818Z,36.92
2023-01-12T21:24:46.155Z,36.90
2023-01-12T21:27:12.999Z,37.14
2023-01-12T21:29:40.086Z,36.63
2023-01-12T21:32:07.514Z,36.53
2023-01-12T21:34:36.652Z,36.39
2023-01-12T21:37:03.572Z,35.99
2023-01-12T21:39:30.424Z,36.42
2023-01-12T21:41:57.347Z,36.46
2023-01-12T21:44:24.643Z,36.89
2023-01-12T21:46:51.873Z,37.00
2023-01-12T21:49:19.169Z,37.33
2023-01-12T21:51:46.382Z,37.66
2023-01-12T21:54:13.848Z,37.79
2023-01-12T21:56:40.893Z,37.85
2023-01-12T21:59:07.850Z,38.00
2023-01-12T22:01:35.109Z,37.85
2023-01-12T22:04:02.326Z,37.90
2023-01-12T22:06:29.660Z,37.92
2023-01-12T22:08:56.960Z,38.11
2023-01-12T22:11:23.951Z,38.04
2023-01-12T22:13:50.832Z,38.39
2023-01-12T22:16:17.959Z,38.52
2023-01-12T22:18:47.233Z,38.67
2023-01-12T22:21:14.124Z,38.73
2023-01-12T22:23:41.092Z,38.94
2023-01-12T22:26:08.159Z,38.67
2023-01-12T22:28:35.627Z,39.17
2023-01-12T22:31:02.538Z,39.14
2023-01-12T22:33:29.571Z,39.08
2023-01-12T22:35:56.438Z,39.01
2023-01-12T22:38:23.698Z,39.23
2023-01-12T22:40:51.653Z,39.10
2023-01-12T22:43:18.604Z,39.31
2023-01-12T22:45:45.507Z,39.66
2023-01-12T22:48:12.699Z,39.61
2023-01-12T22:50:39.563Z,39.18
2023-01-12T22:53:13.775Z,39.18
2023-01-12T22:55:40.889Z,39.27
2023-01-12T22:58:07.723Z,39.77
2023-01-12T23:00:34.697Z,39.69
2023-01-12T23:03:06.454Z,39.50
2023-01-12T23:05:34.525Z,39.93
2023-01-12T23:08:01.600Z,40.00
2023-01-12T23:10:28.834Z,39.71
2023-01-12T23:12:55.917Z,39.85
2023-01-12T23:15:23.169Z,39.81
2023-01-12T23:17:50.257Z,39.91
2023-01-12T23:20:17.179Z,39.74
2023-01-12T23:22:44.219Z,39.72
2023-01-12T23:25:11.345Z,39.94
2023-01-12T23:27:38.575Z,40.24
2023-01-12T23:30:05.746Z,40.18
2023-01-12T23:32:32.949Z,39.88
2023-01-12T23:35:00.157Z,40.13
2023-01-12T23:37:27.210Z,40.26
2023-01-12T23:39:54.068Z,40.21
2023-01-12T23:42:21.068Z,40.35
2023-01-12T23:44:49.240Z,40.03
2023-01-12T23:47:16.349Z,39.63
2023-01-12T23:49:43.289Z,39.98
2023-01-12T23:52:10.251Z,40.27
2023-01-12T23:54:37.141Z,40.32
2023-01-12T23:57:04.254Z,40.20
2023-01-12T23:59:31.295Z,40.36
